createdAt,value
2023-01-19T00:01:01.924Z,-2.62
2023-01-19T00:03:46.627Z,-2.64
2023-01-19T00:06:31.562Z,-2.69
2023-01-19T00:09:16.728Z,-2.74
2023-01-19T00:12:01.491Z,-2.89
2023-01-19T00:14:46.127Z,-2.94
2023-01-19T00:17:30.974Z,-2.96
2023-01-19T00:20:15.683Z,-2.99
2023-01-19T00:23:00.950Z,-3.03
2023-01-19T00:25:46.125Z,-3.15
2023-01-19T00:28:30.993Z,-3.16
2023-01-19T00:31:15.839Z,-3.25
2023-01-19T00:34:00.528Z,-3.26
2023-01-19T00:36:45.440Z,-3.24
2023-01-19T00:39:30.270Z,-3.26
2023-01-19T00:42:14.972Z,-3.27
2023-01-19T00:44:59.697Z,-3.33
2023-01-19T00:47:44.490Z,-3.46
2023-01-19T00:50:29.164Z,-3.48
2023-01-19T00:53:13.941Z,-3.60
2023-01-19T00:55:58.636Z,-3.61
2023-01-19T00:58:43.483Z,-3.49
2023-01-19T01:01:45.648Z,-3.37
2023-01-19T01:04:31.098Z,-3.39
2023-01-19T01:07:15.843Z,-3.41
2023-01-19T01:10:00.454Z,-3.53
2023-01-19T01:12:57.371Z,-3.72
2023-01-19T01:15:50.503Z,-3.73
2023-01-19T01:18:35.240Z,-3.84
2023-01-19T01:21:19.971Z,-3.82
2023-01-19T01:24:04.780Z,-3.90
2023-01-19T01:26:49.684Z,-3.96
2023-01-19T01:29:34.507Z,-3.87
2023-01-19T01:32:19.354Z,-3.77
2023-01-19T01:35:04.188Z,-3.82
2023-01-19T01:37:48.983Z,-3.99
2023-01-19T01:40:33.839Z,-4.05
2023-01-19T01:43:18.591Z,-4.11
2023-01-19T01:46:03.573Z,-4.24
2023-01-19T01:48:48.392Z,-4.20
2023-01-19T01:51:33.260Z,-4.19
2023-01-19T01:54:17.967Z,-4.21
2023-01-19T01:57:02.845Z,-4.18
2023-01-19T01:59:47.710Z,-4.15
2023-01-19T02:02:32.636Z,-4.08
2023-01-19T02:05:17.600Z,-4.09
2023-01-19T02:08:02.342Z,-4.11
2023-01-19T02:10:47.056Z,-4.06
2023-01-19T02:13:31.738Z,-4.12
2023-01-19T02:16:16.675Z,-4.23
2023-01-19T02:19:01.668Z,-4.33
2023-01-19T02:21:46.484Z,-4.49
2023-01-19T02:24:31.182Z,-4.52
2023-01-19T02:27:15.896Z,-4.53
2023-01-19T02:30:00.913Z,-4.42
2023-01-19T02:32:45.629Z,-4.35
2023-01-19T02:35:30.502Z,-4.30
2023-01-19T02:38:15.181Z,-4.48
2023-01-19T02:40:59.954Z,-4.66
2023-01-19T02:43:44.820Z,-4.82
2023-01-19T02:46:29.666Z,-4.81
2023-01-19T02:49:14.319Z,-5.00
2023-01-19T02:51:59.173Z,-5.03
2023-01-19T02:54:43.745Z,-5.02
2023-01-19T02:57:28.627Z,-4.91
2023-01-19T03:00:13.472Z,-4.82
2023-01-19T03:02:58.519Z,-4.72
2023-01-19T03:05:44.073Z,-4.86
2023-01-19T03:08:28.826Z,-4.84
2023-01-19T03:11:13.649Z,-4.79
2023-01-19T03:14:00.375Z,-4.93
2023-01-19T03:16:46.731Z,-4.88
2023-01-19T03:19:31.496Z,-4.86
2023-01-19T03:22:16.093Z,-4.86
2023-01-19T03:25:01.111Z,-5.01
2023-01-19T03:27:45.726Z,-5.10
2023-01-19T03:30:30.411Z,-5.14
2023-01-19T03:33:15.262Z,-5.13
2023-01-19T03:36:00.111Z,-5.20
2023-01-19T03:38:44.732Z,-5.32
2023-01-19T03:41:29.482Z,-5.33
2023-01-19T03:44:14.253Z,-5.42
2023-01-19T03:46:58.968Z,-5.37
2023-01-19T03:49:44.036Z,-5.14
2023-01-19T03:52:28.714Z,-5.00
2023-01-19T03:55:13.492Z,-4.96
2023-01-19T03:57:58.215Z,-5.07
2023-01-19T04:00:43.146Z,-5.06
2023-01-19T04:03:28.004Z,-5.14
2023-01-19T04:06:12.756Z,-5.13
2023-01-19T04:08:57.594Z,-5.22
2023-01-19T04:11:42.193Z,-5.30
2023-01-19T04:14:26.748Z,-5.39
2023-01-19T04:17:11.409Z,-5.37
2023-01-19T04:19:56.261Z,-5.37
2023-01-19T04:22:41.018Z,-5.51
2023-01-19T04:25:25.799Z,-5.44
2023-01-19T04:28:10.627Z,-5.38
2023-01-19T04:30:55.397Z,-5.32
2023-01-19T04:33:40.122Z,-5.33
2023-01-19T04:36:24.981Z,-5.36
2023-01-19T04:39:09.710Z,-5.42
2023-01-19T04:41:54.694Z,-5.42
2023-01-19T04:44:39.328Z,-5.49
2023-01-19T04:47:24.105Z,-5.57
2023-01-19T04:50:08.942Z,-5.68
2023-01-19T04:52:53.634Z,-5.77
2023-01-19T04:55:38.420Z,-5.86
2023-01-19T04:58:23.176Z,-5.88
2023-01-19T05:01:07.928Z,-5.96
2023-01-19T05:03:52.669Z,-6.10
2023-01-19T05:06:37.326Z,-6.16
2023-01-19T05:09:22.161Z,-6.29
2023-01-19T05:12:07.045Z,-6.28
2023-01-19T05:14:51.873Z,-6.20
2023-01-19T05:17:36.693Z,-6.14
2023-01-19T05:20:21.664Z,-5.99
2023-01-19T05:23:06.421Z,-6.03
2023-01-19T05:25:51.228Z,-6.02
2023-01-19T05:28:35.983Z,-6.04
2023-01-19T05:31:20.920Z,-6.04
2023-01-19T05:34:06.029Z,-5.98
2023-01-19T05:36:50.779Z,-5.84
2023-01-19T05:39:35.620Z,-5.84
2023-01-19T05:42:20.500Z,-5.93
2023-01-19T05:45:05.247Z,-6.06
2023-01-19T05:47:49.982Z,-5.95
2023-01-19T05:50:35.187Z,-5.89
2023-01-19T05:53:19.916Z,-5.71
2023-01-19T05:56:04.813Z,-5.59
2023-01-19T05:58:49.562Z,-5.56
2023-01-19T06:01:34.406Z,-5.57
2023-01-19T06:04:19.251Z,-5.63
2023-01-19T06:07:03.951Z,-5.68
2023-01-19T06:09:48.710Z,-5.66
2023-01-19T06:12:33.333Z,-5.68
2023-01-19T06:15:18.213Z,-5.52
2023-01-19T06:18:02.988Z,-5.54
2023-01-19T06:20:47.811Z,-5.74
2023-01-19T06:23:32.600Z,-5.94
2023-01-19T06:26:17.368Z,-5.96
2023-01-19T06:29:02.129Z,-6.08
2023-01-19T06:31:46.989Z,-6.09
2023-01-19T06:34:31.701Z,-6.00
2023-01-19T06:37:16.481Z,-5.91
2023-01-19T06:40:01.253Z,-5.80
2023-01-19T06:42:46.080Z,-5.83
2023-01-19T06:45:30.933Z,-5.91
2023-01-19T06:48:15.692Z,-5.96
2023-01-19T06:51:00.603Z,-5.99
2023-01-19T06:53:45.324Z,-5.96
2023-01-19T06:56:29.997Z,-5.98
2023-01-19T06:59:14.784Z,-6.05
2023-01-19T07:01:59.825Z,-6.12
2023-01-19T07:04:44.774Z,-6.11
2023-01-19T07:07:29.540Z,-6.11
2023-01-19T07:10:14.414Z,-6.17
2023-01-19T07:12:59.308Z,-6.17
2023-01-19T07:15:44.474Z,-6.19
2023-01-19T07:18:29.142Z,-6.19
2023-01-19T07:21:13.920Z,-6.30
2023-01-19T07:23:58.616Z,-6.28
2023-01-19T07:26:43.429Z,-6.26
2023-01-19T07:29:28.127Z,-6.25
2023-01-19T07:32:12.715Z,-6.10
2023-01-19T07:34:57.539Z,-6.18
2023-01-19T07:37:42.218Z,-6.23
2023-01-19T07:40:26.975Z,-6.15
2023-01-19T07:43:12.263Z,-6.06
2023-01-19T07:45:57.153Z,-6.02
2023-01-19T07:48:41.883Z,-5.96
2023-01-19T07:51:26.656Z,-5.90
2023-01-19T07:54:11.414Z,-5.88
2023-01-19T07:56:56.241Z,-5.86
2023-01-19T07:59:40.982Z,-5.75
2023-01-19T08:02:25.963Z,-5.60
2023-01-19T08:05:11.169Z,-5.55
2023-01-19T08:07:55.948Z,-5.57
2023-01-19T08:10:40.699Z,-5.51
2023-01-19T08:13:25.329Z,-5.38
2023-01-19T08:16:10.196Z,-5.32
2023-01-19T08:18:55.408Z,-5.23
2023-01-19T08:21:40.209Z,-5.15
2023-01-19T08:24:24.854Z,-5.02
2023-01-19T08:27:09.483Z,-4.80
2023-01-19T08:29:54.282Z,-4.62
2023-01-19T08:32:39.006Z,-4.39
2023-01-19T08:35:24.016Z,-4.22
2023-01-19T08:38:08.871Z,-4.05
2023-01-19T08:40:53.718Z,-3.85
2023-01-19T08:43:38.409Z,-3.60
2023-01-19T08:46:23.312Z,-3.45
2023-01-19T08:49:07.946Z,-3.30
2023-01-19T08:51:52.885Z,-3.21
2023-01-19T08:54:37.569Z,-3.11
2023-01-19T08:57:22.391Z,-2.94
2023-01-19T09:00:07.135Z,-2.75
2023-01-19T09:02:51.878Z,-2.58
2023-01-19T09:05:37.233Z,-2.45
2023-01-19T09:08:21.964Z,-2.63
2023-01-19T09:11:06.767Z,-2.58
2023-01-19T09:13:52.624Z,-2.72
2023-01-19T09:16:37.347Z,-2.56
2023-01-19T09:19:22.157Z,-2.43
2023-01-19T09:22:06.881Z,-2.24
2023-01-19T09:24:51.677Z,-2.21
2023-01-19T09:27:36.413Z,-2.11
2023-01-19T09:30:21.252Z,-2.07
2023-01-19T09:33:05.849Z,-1.94
2023-01-19T09:35:50.814Z,-1.93
2023-01-19T09:38:35.419Z,-1.88
2023-01-19T09:41:20.081Z,-1.91
2023-01-19T09:44:04.733Z,-2.09
2023-01-19T09:46:49.457Z,-2.11
2023-01-19T09:49:34.095Z,-2.02
2023-01-19T09:52:19.159Z,-2.31
2023-01-19T09:55:04.199Z,-2.09
2023-01-19T09:57:49.013Z,-1.90
2023-01-19T10:00:35.063Z,-1.70
2023-01-19T10:03:20.160Z,-1.68
2023-01-19T10:06:05.503Z,-1.53
2023-01-19T10:08:50.128Z,-1.47
2023-01-19T10:11:51.531Z,-1.45
2023-01-19T10:14:37.085Z,-1.35
2023-01-19T10:17:21.754Z,-1.15
2023-01-19T10:20:06.651Z,-1.14
2023-01-19T10:22:51.337Z,-1.04
2023-01-19T10:25:36.433Z,-0.93
2023-01-19T10:28:21.318Z,-0.87
2023-01-19T10:31:06.294Z,-0.85
2023-01-19T10:33:51.471Z,-0.78
2023-01-19T10:36:36.263Z,-1.06
2023-01-19T10:39:20.949Z,-1.16
2023-01-19T10:42:05.716Z,-0.99
2023-01-19T10:44:50.403Z,-1.22
2023-01-19T10:47:35.061Z,-1.72
2023-01-19T10:50:19.781Z,-1.92
2023-01-19T10:53:04.872Z,-2.35
2023-01-19T10:55:50.150Z,-2.48
2023-01-19T10:58:34.879Z,-2.54
2023-01-19T11:01:19.716Z,-2.56
2023-01-19T11:04:04.926Z,-2.56
2023-01-19T11:06:49.614Z,-2.28
2023-01-19T11:09:34.472Z,-1.96
2023-01-19T11:12:19.190Z,-1.73
2023-01-19T11:15:04.053Z,-1.81
2023-01-19T11:17:48.827Z,-2.04
2023-01-19T11:20:33.716Z,-2.19
2023-01-19T11:23:18.389Z,-2.30
2023-01-19T11:26:03.233Z,-2.11
2023-01-19T11:28:47.984Z,-1.88
2023-01-19T11:31:32.828Z,-1.60
2023-01-19T11:34:17.538Z,-1.37
2023-01-19T11:37:02.261Z,-1.24
2023-01-19T11:39:46.994Z,-1.02
2023-01-19T11:42:31.600Z,-0.95
2023-01-19T11:45:16.444Z,-0.90
2023-01-19T11:48:01.355Z,-0.86
2023-01-19T11:50:46.459Z,-1.11
2023-01-19T11:53:31.077Z,-1.40
2023-01-19T11:56:16.021Z,-1.63
2023-01-19T11:59:00.827Z,-1.71
2023-01-19T12:01:45.487Z,-2.00
2023-01-19T12:04:30.279Z,-2.08
2023-01-19T12:07:15.069Z,-2.09
2023-01-19T12:09:59.924Z,-2.07
2023-01-19T12:12:44.608Z,-1.94
2023-01-19T12:15:29.399Z,-1.96
2023-01-19T12:18:14.059Z,-2.01
2023-01-19T12:20:58.998Z,-1.94
2023-01-19T12:23:43.664Z,-1.96
2023-01-19T12:26:28.969Z,-1.95
2023-01-19T12:29:13.735Z,-1.87
2023-01-19T12:31:58.520Z,-1.77
2023-01-19T12:34:43.630Z,-1.66
2023-01-19T12:37:28.260Z,-1.50
2023-01-19T12:40:12.980Z,-1.32
2023-01-19T12:42:57.588Z,-1.14
2023-01-19T12:45:42.279Z,-1.14
2023-01-19T12:48:26.961Z,-1.15
2023-01-19T12:51:11.697Z,-1.31
2023-01-19T12:53:56.385Z,-1.32
2023-01-19T12:56:41.163Z,-1.11
2023-01-19T12:59:25.991Z,-1.03
2023-01-19T13:02:10.897Z,-1.04
2023-01-19T13:04:56.119Z,-1.03
2023-01-19T13:07:40.841Z,-0.99
2023-01-19T13:10:25.692Z,-1.11
2023-01-19T13:13:10.380Z,-1.27
2023-01-19T13:15:56.045Z,-1.33
2023-01-19T13:18:41.057Z,-1.66
2023-01-19T13:21:25.866Z,-1.87
2023-01-19T13:24:10.767Z,-2.07
2023-01-19T13:26:55.444Z,-2.30
2023-01-19T13:29:40.181Z,-2.37
2023-01-19T13:32:24.846Z,-2.40
2023-01-19T13:35:09.758Z,-2.40
2023-01-19T13:37:54.440Z,-2.40
2023-01-19T13:40:39.344Z,-2.33
2023-01-19T13:43:24.038Z,-2.10
2023-01-19T13:46:08.862Z,-2.04
2023-01-19T13:48:53.644Z,-2.04
2023-01-19T13:51:38.258Z,-2.09
2023-01-19T13:54:22.970Z,-2.37
2023-01-19T13:57:07.672Z,-2.52
2023-01-19T13:59:52.469Z,-2.69
2023-01-19T14:02:37.324Z,-2.63
2023-01-19T14:05:22.633Z,-2.72
2023-01-19T14:08:07.389Z,-2.67
2023-01-19T14:10:52.187Z,-2.54
2023-01-19T14:13:36.767Z,-2.40
2023-01-19T14:16:21.624Z,-2.27
2023-01-19T14:19:06.344Z,-2.17
2023-01-19T14:21:51.276Z,-2.20
2023-01-19T14:24:35.978Z,-2.26
2023-01-19T14:27:20.666Z,-2.35
2023-01-19T14:30:05.467Z,-2.41
2023-01-19T14:32:50.240Z,-2.50
2023-01-19T14:35:35.059Z,-2.61
2023-01-19T14:38:19.702Z,-2.67
2023-01-19T14:41:04.544Z,-2.74
2023-01-19T14:43:49.289Z,-2.86
2023-01-19T14:46:34.151Z,-2.90
2023-01-19T14:49:18.762Z,-3.00
2023-01-19T14:52:03.743Z,-3.06
2023-01-19T14:54:48.570Z,-3.17
2023-01-19T14:57:33.176Z,-3.14
2023-01-19T15:00:18.041Z,-3.23
2023-01-19T15:03:02.893Z,-3.32
2023-01-19T15:05:47.586Z,-3.44
2023-01-19T15:08:32.364Z,-3.47
2023-01-19T15:11:17.089Z,-3.50
2023-01-19T15:14:01.761Z,-3.57
2023-01-19T15:16:46.594Z,-3.58
2023-01-19T15:19:31.419Z,-3.56
2023-01-19T15:22:16.185Z,-3.65
2023-01-19T15:25:00.839Z,-3.71
2023-01-19T15:27:45.572Z,-3.80
2023-01-19T15:30:30.558Z,-3.86
2023-01-19T15:33:15.149Z,-3.88
2023-01-19T15:35:59.916Z,-3.87
2023-01-19T15:38:44.572Z,-3.70
2023-01-19T15:41:29.425Z,-3.82
2023-01-19T15:44:14.017Z,-3.92
2023-01-19T15:46:58.756Z,-3.84
2023-01-19T15:49:43.509Z,-3.60
2023-01-19T15:52:28.368Z,-3.77
2023-01-19T15:55:13.143Z,-3.84
2023-01-19T15:57:57.979Z,-3.88
2023-01-19T16:00:42.878Z,-4.03
2023-01-19T16:03:27.941Z,-4.06
2023-01-19T16:06:12.693Z,-4.12
2023-01-19T16:08:57.403Z,-4.14
2023-01-19T16:11:42.227Z,-4.14
2023-01-19T16:14:26.983Z,-4.01
2023-01-19T16:17:11.620Z,-4.00
2023-01-19T16:19:56.305Z,-3.99
2023-01-19T16:22:41.111Z,-4.09
2023-01-19T16:25:25.892Z,-4.14
2023-01-19T16:28:10.617Z,-4.26
2023-01-19T16:30:55.587Z,-4.31
2023-01-19T16:33:40.195Z,-4.30
2023-01-19T16:36:25.033Z,-4.30
2023-01-19T16:39:09.816Z,-4.37
2023-01-19T16:41:54.528Z,-4.42
2023-01-19T16:44:39.292Z,-4.42
2023-01-19T16:47:24.123Z,-4.36
2023-01-19T16:50:09.210Z,-4.57
2023-01-19T16:52:54.126Z,-4.64
2023-01-19T16:55:38.902Z,-4.74
2023-01-19T16:58:23.580Z,-4.77
2023-01-19T17:01:08.472Z,-4.97
2023-01-19T17:03:53.585Z,-4.93
2023-01-19T17:06:38.391Z,-4.96
2023-01-19T17:09:23.101Z,-5.06
2023-01-19T17:12:07.963Z,-5.14
2023-01-19T17:14:52.828Z,-5.16
2023-01-19T17:17:37.529Z,-5.21
2023-01-19T17:20:22.201Z,-5.22
2023-01-19T17:23:07.029Z,-5.26
2023-01-19T17:25:51.832Z,-5.10
2023-01-19T17:28:36.665Z,-4.98
2023-01-19T17:31:21.573Z,-4.93
2023-01-19T17:34:06.556Z,-4.97
2023-01-19T17:36:51.196Z,-4.96
2023-01-19T17:39:35.826Z,-4.95
2023-01-19T17:42:20.653Z,-5.10
2023-01-19T17:45:05.387Z,-5.17
2023-01-19T17:47:50.398Z,-5.23
2023-01-19T17:50:35.191Z,-5.19
2023-01-19T17:53:20.002Z,-5.23
2023-01-19T17:56:04.740Z,-5.29
2023-01-19T17:58:49.433Z,-5.34
2023-01-19T18:01:34.275Z,-5.43
2023-01-19T18:04:19.341Z,-5.54
2023-01-19T18:07:04.145Z,-5.70
2023-01-19T18:09:48.792Z,-5.66
2023-01-19T18:12:33.608Z,-5.47
2023-01-19T18:15:18.247Z,-5.53
2023-01-19T18:18:02.967Z,-5.65
2023-01-19T18:20:47.860Z,-5.57
2023-01-19T18:23:32.529Z,-5.67
2023-01-19T18:26:17.254Z,-5.67
2023-01-19T18:29:02.198Z,-5.67
2023-01-19T18:31:47.133Z,-5.65
2023-01-19T18:34:32.141Z,-5.76
2023-01-19T18:37:16.878Z,-5.87
2023-01-19T18:40:01.478Z,-5.78
2023-01-19T18:42:46.201Z,-5.61
2023-01-19T18:45:30.885Z,-5.56
2023-01-19T18:48:17.945Z,-5.63
2023-01-19T18:51:02.933Z,-5.61
2023-01-19T18:53:47.629Z,-5.54
2023-01-19T18:56:32.323Z,-5.57
2023-01-19T18:59:17.057Z,-5.64
2023-01-19T19:02:01.888Z,-5.57
2023-01-19T19:04:46.579Z,-5.57
2023-01-19T19:07:31.368Z,-5.62
2023-01-19T19:10:16.192Z,-5.67
2023-01-19T19:13:00.725Z,-5.65
2023-01-19T19:15:45.566Z,-5.61
2023-01-19T19:18:30.249Z,-5.65
2023-01-19T19:21:15.157Z,-5.68
2023-01-19T19:23:59.889Z,-5.75
2023-01-19T19:26:44.685Z,-5.72
2023-01-19T19:29:29.387Z,-5.69
2023-01-19T19:32:14.391Z,-5.73
2023-01-19T19:34:59.069Z,-5.83
2023-01-19T19:37:43.927Z,-5.83
2023-01-19T19:40:28.764Z,-5.78
2023-01-19T19:43:13.562Z,-5.98
2023-01-19T19:45:58.448Z,-6.11
2023-01-19T19:48:43.220Z,-6.25
2023-01-19T19:51:28.130Z,-6.27
2023-01-19T19:54:12.952Z,-6.17
2023-01-19T19:56:57.799Z,-5.99
2023-01-19T19:59:42.552Z,-5.96
2023-01-19T20:02:27.309Z,-6.05
2023-01-19T20:05:12.160Z,-5.98
2023-01-19T20:07:56.980Z,-5.90
2023-01-19T20:10:41.783Z,-5.95
2023-01-19T20:13:26.574Z,-5.97
2023-01-19T20:16:11.932Z,-5.93
2023-01-19T20:18:56.608Z,-5.90
2023-01-19T20:21:41.471Z,-5.92
2023-01-19T20:24:26.173Z,-5.91
2023-01-19T20:27:11.056Z,-5.92
2023-01-19T20:29:55.772Z,-6.13
2023-01-19T20:32:40.455Z,-6.15
2023-01-19T20:35:25.254Z,-6.09
2023-01-19T20:38:09.985Z,-6.14
2023-01-19T20:40:54.730Z,-6.07
2023-01-19T20:43:39.576Z,-6.14
2023-01-19T20:46:24.360Z,-6.10
2023-01-19T20:49:09.148Z,-6.14
2023-01-19T20:51:54.036Z,-6.09
2023-01-19T20:54:38.668Z,-6.04
2023-01-19T20:57:23.594Z,-6.01
2023-01-19T21:00:08.504Z,-6.05
2023-01-19T21:02:53.341Z,-6.04
2023-01-19T21:05:38.098Z,-5.97
2023-01-19T21:08:23.064Z,-5.95
2023-01-19T21:11:07.943Z,-5.99
2023-01-19T21:13:52.800Z,-6.01
2023-01-19T21:16:37.536Z,-6.13
2023-01-19T21:19:23.514Z,-6.09
2023-01-19T21:22:08.497Z,-6.07
2023-01-19T21:24:53.144Z,-6.16
2023-01-19T21:27:37.959Z,-6.31
2023-01-19T21:30:22.785Z,-6.44
2023-01-19T21:33:07.693Z,-6.42
2023-01-19T21:35:52.532Z,-6.49
2023-01-19T21:38:37.232Z,-6.34
2023-01-19T21:41:21.960Z,-6.47
2023-01-19T21:44:06.630Z,-6.58
2023-01-19T21:46:51.506Z,-6.47
2023-01-19T21:49:36.191Z,-6.35
2023-01-19T21:52:20.964Z,-6.32
2023-01-19T21:55:05.724Z,-6.37
2023-01-19T21:57:50.521Z,-6.39
2023-01-19T22:00:35.144Z,-6.35
2023-01-19T22:03:19.959Z,-6.42
2023-01-19T22:06:04.616Z,-6.53
2023-01-19T22:08:49.404Z,-6.59
2023-01-19T22:11:34.278Z,-6.57
2023-01-19T22:14:19.114Z,-6.62
2023-01-19T22:17:03.862Z,-6.57
2023-01-19T22:19:48.631Z,-6.52
2023-01-19T22:22:33.366Z,-6.55
2023-01-19T22:25:18.064Z,-6.65
2023-01-19T22:28:02.914Z,-6.72
2023-01-19T22:30:47.773Z,-6.90
2023-01-19T22:33:32.524Z,-6.93
2023-01-19T22:36:17.315Z,-6.76
2023-01-19T22:39:02.130Z,-6.92
2023-01-19T22:41:46.888Z,-7.13
2023-01-19T22:44:31.550Z,-7.21
2023-01-19T22:47:16.463Z,-7.29
2023-01-19T22:50:01.117Z,-7.32
2023-01-19T22:52:45.916Z,-7.13
2023-01-19T22:55:30.562Z,-7.01
2023-01-19T22:58:15.298Z,-6.92
2023-01-19T23:01:00.201Z,-6.87
2023-01-19T23:03:45.451Z,-6.83
2023-01-19T23:06:30.226Z,-6.80
2023-01-19T23:09:14.920Z,-6.83
2023-01-19T23:11:59.740Z,-6.84
2023-01-19T23:14:44.523Z,-6.82
2023-01-19T23:17:29.328Z,-6.85
2023-01-19T23:20:13.941Z,-7.07
2023-01-19T23:22:58.669Z,-7.22
2023-01-19T23:25:43.367Z,-7.19
2023-01-19T23:28:28.165Z,-7.10
2023-01-19T23:31:13.028Z,-7.08
2023-01-19T23:33:58.167Z,-7.19
2023-01-19T23:36:42.974Z,-7.22
2023-01-19T23:39:27.765Z,-7.29
2023-01-19T23:42:12.631Z,-7.44
2023-01-19T23:44:57.354Z,-7.56
2023-01-19T23:47:42.110Z,-7.57
2023-01-19T23:50:26.798Z,-7.42
2023-01-19T23:53:11.548Z,-7.29
2023-01-19T23:55:56.245Z,-7.22
2023-01-19T23:58:41.110Z,-7.14
